Time;durP1;ratioP1;P1;durP2;ratioP2;P2;SDS_P1;SDS_P2;PMS_P1;PMS_P2;Temp;Humidity;BMP_temperature;BMP_pressure;BME280_temperature;BME280_humidity;BME280_pressure;Samples;Min_cycle;Max_cycle;Signal;HPM_P1;HPM_P2
2022/01/25 00:10:15;;;;;;;41.40;16.00;;;;;;;6.78;76.72;103006.97;7391673;19;20130;-66
2022/01/25 00:31:02;;;;;;;39.83;16.63;;;;;;;6.76;76.97;102998.34;7390562;19;20134;-66
2022/01/25 00:33:31;;;;;;;36.45;14.93;;;;;;;6.77;75.37;102999.19;7387585;19;20503;-67
2022/01/25 00:36:00;;;;;;;35.28;15.82;;;;;;;6.75;75.03;102987.97;7385385;19;20016;-65
2022/01/25 00:38:28;;;;;;;39.17;16.45;;;;;;;6.76;75.75;102987.88;7388518;19;20014;-65
2022/01/25 00:40:55;;;;;;;40.28;16.45;;;;;;;6.80;77.26;102991.22;7386748;19;20022;-67
2022/01/25 00:43:23;;;;;;;42.45;16.67;;;;;;;6.82;76.61;102989.34;7387463;19;20511;-66
2022/01/25 00:45:54;;;;;;;40.95;16.20;;;;;;;6.85;76.90;102986.63;7385512;19;20076;-66
2022/01/25 00:48:31;;;;;;;42.40;17.27;;;;;;;6.85;76.75;102984.84;7390501;19;20467;-66
2022/01/25 00:51:17;;;;;;;37.05;15.05;;;;;;;6.85;75.85;102984.00;7387980;19;20329;-67
2022/01/25 00:56:22;;;;;;;41.38;15.85;;;;;;;6.81;75.64;102975.44;7389455;19;20022;-66
2022/01/25 00:58:50;;;;;;;38.88;15.25;;;;;;;6.77;76.16;102976.50;7387976;19;20019;-67
2022/01/25 01:01:19;;;;;;;42.25;16.90;;;;;;;6.75;76.94;102980.13;7390372;19;20026;-67
2022/01/25 01:03:46;;;;;;;43.78;17.58;;;;;;;6.70;76.37;102982.13;7384791;19;20014;-67
2022/01/25 01:06:14;;;;;;;43.33;17.20;;;;;;;6.68;76.55;102973.50;7388238;19;20031;-67
2022/01/25 01:08:42;;;;;;;41.65;17.20;;;;;;;6.71;77.52;102974.19;7388022;19;20015;-66
2022/01/25 01:11:15;;;;;;;42.35;16.30;;;;;;;6.70;77.05;102984.75;7387718;19;20051;-64
2022/01/25 01:32:22;;;;;;;38.75;15.52;;;;;;;6.70;76.15;102989.97;7394996;19;20011;-66
2022/01/25 01:43:02;;;;;;;38.08;13.75;;;;;;;6.63;78.04;102994.66;7393203;19;20023;-64
2022/01/25 01:45:43;;;;;;;42.65;17.20;;;;;;;6.60;77.86;103005.25;7394051;19;20014;-65
2022/01/25 01:48:16;;;;;;;42.10;15.63;;;;;;;6.58;77.35;103006.25;7391905;19;20007;-65
2022/01/25 01:50:43;;;;;;;38.97;15.48;;;;;;;6.61;78.34;103000.84;7392577;19;20014;-65
2022/01/25 01:53:10;;;;;;;46.20;18.38;;;;;;;6.59;77.83;102995.72;7396535;19;20018;-68
2022/01/25 01:55:37;;;;;;;42.40;17.90;;;;;;;6.64;78.86;102991.13;7391887;19;20367;-66
2022/01/25 01:58:04;;;;;;;38.35;15.73;;;;;;;6.65;78.31;102998.03;7395045;19;20115;-66
2022/01/25 02:00:37;;;;;;;42.97;16.63;;;;;;;6.62;76.53;103002.56;7394793;19;20010;-66
2022/01/25 02:03:05;;;;;;;44.15;16.92;;;;;;;6.62;78.29;103002.56;7392320;19;20010;-66
2022/01/25 02:05:33;;;;;;;52.42;19.38;;;;;;;6.58;77.97;103003.63;7394458;19;20016;-66
2022/01/25 02:08:00;;;;;;;45.22;16.25;;;;;;;6.59;77.10;102998.34;7391646;19;20011;-65
2022/01/25 02:10:28;;;;;;;44.67;16.83;;;;;;;6.56;77.13;103001.06;7390635;19;20433;-67
2022/01/25 02:12:56;;;;;;;42.22;15.82;;;;;;;6.52;76.44;103002.16;7390539;19;20010;-65
2022/01/25 02:15:26;;;;;;;45.88;18.67;;;;;;;6.49;76.10;102997.06;7392696;19;20011;-67
2022/01/25 02:22:23;;;;;;;42.92;16.98;;;;;;;6.49;76.39;102996.22;7391418;19;20038;-66
2022/01/25 02:23:21;;;;;;;45.03;16.48;;;;;;;6.48;76.44;103003.22;7391414;19;20284;-66
2022/01/25 02:25:53;;;;;;;42.13;17.25;;;;;;;6.52;76.95;102996.06;7395207;19;20048;-65
2022/01/25 02:28:22;;;;;;;53.72;17.30;;;;;;;6.54;76.78;102994.25;7388980;19;20041;-65
2022/01/25 02:30:50;;;;;;;41.20;15.80;;;;;;;6.54;76.96;103000.31;7393682;19;20042;-67
2022/01/25 02:33:17;;;;;;;44.05;17.60;;;;;;;6.54;77.31;102999.47;7393049;19;20014;-67
2022/01/25 02:35:44;;;;;;;52.42;19.55;;;;;;;6.54;77.55;103002.09;7392523;19;20052;-67
2022/01/25 02:38:13;;;;;;;46.97;18.48;;;;;;;6.53;77.39;103001.22;7389218;19;20034;-67
2022/01/25 02:40:40;;;;;;;46.25;17.33;;;;;;;6.56;78.64;103003.69;7390767;19;20011;-66
2022/01/25 02:43:07;;;;;;;43.10;16.98;;;;;;;6.57;78.59;102988.84;7391506;19;20034;-67
2022/01/25 02:45:36;;;;;;;43.92;16.80;;;;;;;6.56;77.49;102995.84;7394646;19;20042;-67
2022/01/25 02:50:39;;;;;;;41.10;15.98;;;;;;;6.52;77.86;102985.59;7393744;19;20040;-65
2022/01/25 02:53:06;;;;;;;47.13;17.20;;;;;;;6.53;78.64;102984.69;7390707;19;20449;-66
2022/01/25 02:55:33;;;;;;;50.85;18.98;;;;;;;6.52;78.67;102999.53;7393303;19;20029;-66
2022/01/25 02:58:00;;;;;;;39.95;16.15;;;;;;;6.50;76.98;102987.47;7389403;19;20031;-66
2022/01/25 03:00:27;;;;;;;46.30;16.92;;;;;;;6.53;78.77;102979.47;7393819;19;20053;-65
2022/01/25 03:02:53;;;;;;;46.33;16.85;;;;;;;6.50;77.36;102970.00;7391696;19;20468;-67
2022/01/25 03:05:20;;;;;;;43.90;17.55;;;;;;;6.49;77.19;102981.38;7393406;19;20495;-68
2022/01/25 03:07:47;;;;;;;45.15;16.85;;;;;;;6.49;77.50;102984.00;7391952;19;20011;-66
2022/01/25 03:10:14;;;;;;;44.00;17.55;;;;;;;6.46;76.74;102984.13;7393362;19;20026;-66
2022/01/25 03:17:50;;;;;;;43.83;16.75;;;;;;;6.49;75.69;102977.91;7394382;19;20011;-66
2022/01/25 03:20:21;;;;;;;47.92;16.90;;;;;;;6.51;77.81;102982.13;7389906;19;20107;-66
2022/01/25 03:25:27;;;;;;;41.90;16.42;;;;;;;6.52;76.55;102983.84;7389319;19;20488;-66
2022/01/25 03:27:56;;;;;;;49.88;18.77;;;;;;;6.49;77.19;102984.00;7387096;19;20034;-66
2022/01/25 03:30:24;;;;;;;45.17;18.13;;;;;;;6.41;76.35;102978.28;7391726;19;20018;-66
2022/01/25 03:32:51;;;;;;;41.17;15.73;;;;;;;6.37;76.31;102982.81;7389124;19;20138;-66
2022/01/25 03:35:18;;;;;;;49.03;18.25;;;;;;;6.37;77.23;102987.19;7387547;19;20018;-67
2022/01/25 03:37:45;;;;;;;45.92;17.88;;;;;;;6.37;76.93;102980.19;7391248;19;20545;-68
2022/01/25 03:40:12;;;;;;;46.60;16.80;;;;;;;6.38;77.38;102981.88;7388510;19;20122;-66
2022/01/25 03:42:40;;;;;;;51.17;18.58;;;;;;;6.42;77.72;102978.22;7391792;19;20015;-66
2022/01/25 03:45:08;;;;;;;48.83;17.80;;;;;;;6.39;77.26;102980.13;7386497;19;20497;-67
2022/01/25 03:50:12;;;;;;;61.08;21.95;;;;;;;6.41;78.03;102988.72;7389131;19;20026;-66
2022/01/25 03:52:39;;;;;;;56.97;19.45;;;;;;;6.38;79.33;102988.88;7387675;19;20002;-66
2022/01/25 03:55:07;;;;;;;49.65;17.98;;;;;;;6.33;77.46;102985.63;7388310;19;20022;-66
2022/01/25 03:57:34;;;;;;;52.00;18.65;;;;;;;6.33;77.32;102985.63;7387489;19;20030;-65
2022/01/25 04:00:01;;;;;;;47.55;18.08;;;;;;;6.31;77.17;102982.25;7390031;19;20010;-66
2022/01/25 04:02:31;;;;;;;47.60;17.67;;;;;;;6.31;77.58;102988.31;7390930;19;20042;-65
2022/01/25 04:05:00;;;;;;;49.45;18.17;;;;;;;6.31;78.22;102983.09;7391247;19;20017;-64
2022/01/25 04:07:43;;;;;;;56.63;19.63;;;;;;;6.36;80.45;102982.88;7392110;19;20021;-67
2022/01/25 04:10:10;;;;;;;47.58;17.50;;;;;;;6.34;79.09;102988.19;7391721;19;20029;-66
2022/01/25 04:12:37;;;;;;;43.42;16.85;;;;;;;6.32;78.31;102976.94;7388407;19;20038;-64
2022/01/25 04:15:04;;;;;;;51.90;19.00;;;;;;;6.25;77.92;102987.75;7387761;19;20082;-66
2022/01/25 04:17:33;;;;;;;47.90;18.00;;;;;;;6.27;77.51;102976.31;7386806;19;20022;-66
2022/01/25 04:25:14;;;;;;;49.53;18.30;;;;;;;6.28;77.35;102971.94;7388252;19;20055;-67
2022/01/25 04:27:41;;;;;;;52.22;17.95;;;;;;;6.31;78.17;102983.09;7389688;19;20468;-65
2022/01/25 04:30:09;;;;;;;43.95;16.95;;;;;;;6.34;77.42;102972.50;7386781;19;20015;-65
2022/01/25 04:32:47;;;;;;;52.33;19.02;;;;;;;6.32;76.75;102963.03;7390108;19;20019;-65
2022/01/25 04:58:54;;;;;;;47.35;17.77;;;;;;;6.24;78.71;102966.00;7389178;19;20032;-65
2022/01/25 05:01:20;;;;;;;49.47;19.25;;;;;;;6.25;79.06;102961.59;7390143;19;20014;-66
2022/01/25 05:06:23;;;;;;;49.63;17.77;;;;;;;6.26;79.56;102958.09;7385789;19;20010;-64
2022/01/25 05:08:54;;;;;;;46.92;18.83;;;;;;;6.23;78.35;102950.41;7390771;19;20010;-64
2022/01/25 05:14:14;;;;;;;52.17;18.30;;;;;;;6.21;78.89;102963.53;7387036;19;20362;-66
2022/01/25 05:22:03;;;;;;;48.65;15.75;;;;;;;6.18;78.00;102955.00;7386775;19;20038;-64
2022/01/25 05:24:47;;;;;;;46.78;17.63;;;;;;;6.15;79.06;102961.19;7385877;19;20079;-65
2022/01/25 05:27:16;;;;;;;46.40;15.80;;;;;;;6.19;80.99;102960.16;7383686;19;20022;-64
2022/01/25 05:29:43;;;;;;;47.67;17.33;;;;;;;6.19;80.40;102960.16;7385760;19;20018;-66
2022/01/25 05:32:11;;;;;;;47.85;16.25;;;;;;;6.17;79.89;102955.91;7388037;19;20014;-65
2022/01/25 05:34:38;;;;;;;47.13;17.85;;;;;;;6.19;79.31;102962.78;7383982;19;20011;-67
2022/01/25 05:37:07;;;;;;;48.20;18.00;;;;;;;6.17;78.02;102963.75;7388952;19;20015;-65
2022/01/25 05:39:36;;;;;;;43.60;16.15;;;;;;;6.15;78.17;102963.81;7385289;19;20032;-66
2022/01/25 05:47:26;;;;;;;42.83;16.38;;;;;;;6.14;78.21;102958.66;7387585;19;20542;-66
2022/01/25 05:49:57;;;;;;;49.65;17.38;;;;;;;6.07;76.60;102954.63;7384752;19;20046;-66
2022/01/25 05:52:27;;;;;;;48.85;16.38;;;;;;;6.11;77.83;102956.19;7388577;19;20040;-66
2022/01/25 05:54:59;;;;;;;46.05;15.98;;;;;;;6.10;77.46;102951.88;7383006;19;20018;-65
2022/01/25 05:57:26;;;;;;;55.05;18.80;;;;;;;6.13;79.48;102951.75;7385005;19;20038;-66
2022/01/25 05:59:54;;;;;;;41.17;16.00;;;;;;;6.13;78.88;102957.81;7387709;19;20464;-65
2022/01/25 06:02:23;;;;;;;43.22;14.88;;;;;;;6.13;77.31;102955.22;7390192;19;20040;-67
2022/01/25 06:04:52;;;;;;;43.70;14.95;;;;;;;6.09;76.61;102952.81;7383445;19;20015;-66
2022/01/25 06:07:19;;;;;;;47.50;16.45;;;;;;;6.13;77.33;102951.75;7385108;19;20055;-65
2022/01/25 06:09:48;;;;;;;41.72;14.77;;;;;;;6.19;78.99;102954.94;7393387;19;20018;-66
2022/01/25 06:12:15;;;;;;;58.53;17.63;;;;;;;6.23;78.68;102953.00;7391241;19;20011;-65
2022/01/25 06:14:42;;;;;;;46.38;15.82;;;;;;;6.23;78.50;102958.25;7391878;19;20015;-65
2022/01/25 06:17:09;;;;;;;47.08;16.13;;;;;;;6.24;79.09;102960.78;7396681;19;20054;-65
2022/01/25 06:19:36;;;;;;;43.25;16.20;;;;;;;6.26;79.71;102961.53;7392676;19;20011;-66
2022/01/25 06:22:03;;;;;;;47.03;15.30;;;;;;;6.25;78.41;102967.69;7393673;19;20038;-66
2022/01/25 06:24:30;;;;;;;44.00;14.32;;;;;;;6.23;76.77;102959.09;7391332;19;20135;-66
2022/01/25 06:26:57;;;;;;;42.80;15.70;;;;;;;6.23;77.24;102951.25;7393394;19;20015;-67
2022/01/25 06:29:24;;;;;;;40.53;15.65;;;;;;;6.22;76.50;102952.16;7392077;19;20006;-66
2022/01/25 06:31:51;;;;;;;41.33;14.63;;;;;;;6.22;76.26;102961.75;7395358;19;20015;-66
2022/01/25 06:34:18;;;;;;;44.97;16.25;;;;;;;6.22;75.96;102962.63;7391904;19;20605;-66
2022/01/25 06:36:47;;;;;;;41.80;14.82;;;;;;;6.21;75.67;102963.53;7390378;19;20015;-66
2022/01/25 06:39:15;;;;;;;46.30;14.93;;;;;;;6.22;76.02;102957.38;7394522;19;20006;-66
2022/01/25 06:41:41;;;;;;;38.55;13.60;;;;;;;6.21;75.84;102976.59;7388303;19;20528;-67
2022/01/25 06:44:08;;;;;;;40.30;14.30;;;;;;;6.21;76.75;102967.91;7390113;19;20023;-66
2022/01/25 06:46:35;;;;;;;36.72;14.25;;;;;;;6.21;78.51;102966.13;7389988;19;20015;-65
2022/01/25 06:49:03;;;;;;;44.50;14.68;;;;;;;6.19;76.44;102961.91;7391258;19;20006;-65
2022/01/25 06:51:30;;;;;;;39.75;13.07;;;;;;;6.14;75.80;102961.28;7393682;19;20007;-66
2022/01/25 06:53:57;;;;;;;39.60;14.02;;;;;;;6.09;75.59;102960.66;7392426;19;20018;-66
2022/01/25 06:56:24;;;;;;;39.72;14.85;;;;;;;6.06;75.92;102961.63;7387196;19;20040;-66
2022/01/25 06:58:51;;;;;;;43.20;13.75;;;;;;;6.04;76.13;102967.84;7389481;19;20055;-65
2022/01/25 07:01:18;;;;;;;42.38;15.05;;;;;;;6.00;75.76;102964.50;7392271;19;20010;-66
2022/01/25 07:03:46;;;;;;;39.10;13.23;;;;;;;6.00;75.67;102967.13;7393857;19;20007;-66
2022/01/25 07:06:14;;;;;;;38.28;14.00;;;;;;;5.97;76.04;102972.50;7393275;19;20010;-65
2022/01/25 07:08:43;;;;;;;49.67;15.68;;;;;;;5.97;77.71;102967.28;7389119;19;20507;-65
2022/01/25 07:11:11;;;;;;;38.35;13.27;;;;;;;5.91;77.31;102962.31;7390919;19;20015;-65
2022/01/25 07:13:39;;;;;;;39.40;14.60;;;;;;;5.93;76.87;102971.81;7389993;19;20018;-67
2022/01/25 07:16:06;;;;;;;42.42;14.45;;;;;;;5.94;77.08;102976.09;7390054;19;20634;-66
2022/01/25 07:18:33;;;;;;;42.60;15.20;;;;;;;5.97;76.80;102980.34;7387936;19;20006;-66
2022/01/25 07:21:00;;;;;;;39.90;14.60;;;;;;;6.00;76.35;102974.97;7387174;19;20043;-65
2022/01/25 07:23:27;;;;;;;44.38;14.55;;;;;;;6.02;76.23;102988.81;7390764;19;20023;-66
2022/01/25 07:25:54;;;;;;;42.08;14.50;;;;;;;5.98;76.36;102987.25;7390475;19;20074;-68
2022/01/25 07:28:21;;;;;;;45.20;14.27;;;;;;;5.95;76.26;102990.00;7390957;19;20487;-66
2022/01/25 07:30:48;;;;;;;35.53;12.70;;;;;;;5.98;75.81;102985.50;7389113;19;20653;-67
2022/01/25 07:33:23;;;;;;;38.15;14.02;;;;;;;5.95;75.45;102982.16;7386578;19;20038;-67
2022/01/25 07:35:50;;;;;;;40.85;14.23;;;;;;;5.93;75.61;102974.41;7387394;19;20007;-66
2022/01/25 07:38:19;;;;;;;42.63;15.15;;;;;;;5.90;76.19;102990.22;7388272;19;20014;-66
2022/01/25 07:40:46;;;;;;;40.15;14.30;;;;;;;5.90;78.02;102990.22;7388102;19;20386;-66
2022/01/25 07:43:13;;;;;;;40.78;14.27;;;;;;;5.89;77.45;102977.25;7388652;19;20321;-66
2022/01/25 07:45:42;;;;;;;44.83;14.50;;;;;;;5.89;77.64;102975.44;7387560;19;20444;-66
2022/01/25 07:48:10;;;;;;;42.90;14.25;;;;;;;5.92;77.78;102979.69;7389907;19;20018;-67
2022/01/25 07:50:38;;;;;;;42.10;12.73;;;;;;;5.95;76.99;102990.00;7392490;19;20010;-67
2022/01/25 07:53:05;;;;;;;39.60;13.02;;;;;;;5.95;76.46;102990.00;7389506;19;20014;-67
2022/01/25 07:55:32;;;;;;;39.97;12.98;;;;;;;5.96;76.09;102983.88;7390030;19;20032;-67
2022/01/25 07:57:59;;;;;;;35.08;12.15;;;;;;;5.97;76.24;102985.56;7391180;19;20018;-65
2022/01/25 08:00:26;;;;;;;39.15;13.70;;;;;;;6.02;77.38;102988.81;7392207;19;20364;-65
2022/01/25 08:02:53;;;;;;;40.25;14.15;;;;;;;5.99;77.68;102984.56;7390080;19;20018;-66
2022/01/25 08:05:24;;;;;;;41.20;14.00;;;;;;;6.02;77.48;102986.19;7388795;19;20011;-66
2022/01/25 08:07:52;;;;;;;39.63;13.30;;;;;;;5.99;77.45;102992.41;7388913;19;20014;-66
2022/01/25 08:10:21;;;;;;;47.65;15.10;;;;;;;6.00;77.84;102993.25;7390245;19;20014;-70
2022/01/25 08:12:49;;;;;;;43.40;13.05;;;;;;;5.98;77.77;102993.34;7389478;19;20013;-67
2022/01/25 08:15:17;;;;;;;37.47;13.30;;;;;;;5.92;75.99;102992.75;7395106;19;20500;-68
2022/01/25 08:17:46;;;;;;;41.17;12.82;;;;;;;5.81;75.54;103003.66;7385807;19;20022;-66
2022/01/25 08:20:13;;;;;;;36.70;12.15;;;;;;;5.76;76.07;102994.31;7390618;19;20500;-66
2022/01/25 08:22:44;;;;;;;39.03;12.23;;;;;;;5.75;76.31;103000.47;7391741;19;20082;-65
2022/01/25 08:25:12;;;;;;;35.75;12.13;;;;;;;5.74;76.38;103001.41;7390919;19;20003;-66
2022/01/25 08:27:40;;;;;;;39.15;12.52;;;;;;;5.67;76.71;103006.03;7385620;19;20014;-66
2022/01/25 08:30:08;;;;;;;40.88;12.07;;;;;;;5.71;77.49;103006.72;7390750;19;20014;-66
2022/01/25 08:32:35;;;;;;;39.75;12.55;;;;;;;5.73;77.10;103002.31;7390493;19;20066;-67
2022/01/25 08:35:04;;;;;;;45.33;14.02;;;;;;;5.76;78.11;102999.53;7389646;19;20589;-66
2022/01/25 08:37:32;;;;;;;42.10;13.77;;;;;;;5.81;77.29;103010.63;7386145;19;20301;-68
2022/01/25 08:40:01;;;;;;;41.00;13.18;;;;;;;5.79;77.01;103007.25;7386812;19;20011;-66
2022/01/25 08:42:28;;;;;;;41.58;15.13;;;;;;;5.80;76.95;103003.72;7388637;19;20018;-67
2022/01/25 08:44:56;;;;;;;36.03;13.60;;;;;;;5.81;77.07;103008.88;7384534;19;20015;-67
2022/01/25 08:47:25;;;;;;;38.83;13.10;;;;;;;5.83;76.88;103011.44;7384557;19;20021;-68
2022/01/25 08:49:55;;;;;;;41.95;15.00;;;;;;;5.85;77.25;103001.75;7390891;19;20384;-68
2022/01/25 08:52:23;;;;;;;42.65;13.52;;;;;;;5.86;76.85;103004.28;7389515;19;20333;-66
2022/01/25 08:54:52;;;;;;;47.97;14.82;;;;;;;5.92;78.20;103009.28;7388867;19;20035;-66
2022/01/25 08:57:20;;;;;;;35.05;12.10;;;;;;;6.01;81.38;103013.25;7388547;19;20014;-66
2022/01/25 08:59:46;;;;;;;37.90;13.27;;;;;;;6.00;79.33;103011.53;7387771;19;20033;-66
2022/01/25 09:02:13;;;;;;;42.25;13.93;;;;;;;6.02;77.93;102999.25;7388351;19;20015;-66
2022/01/25 09:04:41;;;;;;;41.90;13.98;;;;;;;5.97;76.93;103004.69;7384705;19;20017;-66
2022/01/25 09:07:09;;;;;;;41.90;13.20;;;;;;;6.03;78.44;103006.19;7387142;19;20007;-64
2022/01/25 09:09:40;;;;;;;45.45;12.95;;;;;;;5.97;77.28;103009.06;7390105;19;20448;-66
2022/01/25 09:12:11;;;;;;;47.05;14.73;;;;;;;5.97;79.50;103015.16;7385186;19;20594;-68
2022/01/25 09:14:38;;;;;;;52.10;16.30;;;;;;;5.98;81.65;103016.84;7385015;19;20018;-68
2022/01/25 09:17:07;;;;;;;42.00;13.20;;;;;;;6.00;81.18;103019.38;7382693;19;20021;-66
2022/01/25 09:19:38;;;;;;;52.70;15.68;;;;;;;5.96;79.54;103005.63;7390628;19;20014;-67
2022/01/25 09:22:06;;;;;;;44.65;14.43;;;;;;;5.95;77.56;103021.34;7386504;19;20471;-65
2022/01/25 09:24:33;;;;;;;44.70;14.63;;;;;;;5.94;77.05;103023.09;7387547;19;20014;-67
2022/01/25 09:27:02;;;;;;;59.53;18.92;;;;;;;5.96;77.64;103018.69;7384574;19;20019;-67
2022/01/25 09:29:29;;;;;;;50.83;17.13;;;;;;;6.00;78.99;103016.75;7383979;19;20448;-69
2022/01/25 09:31:56;;;;;;;43.67;15.10;;;;;;;6.01;79.37;103024.53;7388056;19;20007;-65
2022/01/25 09:34:25;;;;;;;42.30;14.55;;;;;;;6.04;78.35;103023.56;7384263;19;20017;-65
2022/01/25 09:36:53;;;;;;;40.55;15.98;;;;;;;6.05;77.79;103025.25;7382735;19;20006;-67
2022/01/25 09:39:21;;;;;;;42.83;14.85;;;;;;;6.06;77.06;103028.72;7387190;19;20022;-67
2022/01/25 09:41:48;;;;;;;54.85;18.60;;;;;;;6.07;76.50;103031.25;7382574;19;20010;-67
2022/01/25 09:44:15;;;;;;;42.15;15.93;;;;;;;6.09;76.67;103024.22;7390522;19;20010;-67
2022/01/25 09:46:43;;;;;;;47.28;17.35;;;;;;;6.05;76.62;103025.25;7394183;19;20017;-66
2022/01/25 09:49:11;;;;;;;48.60;16.08;;;;;;;6.10;77.38;103019.81;7393282;19;20017;-65
2022/01/25 09:51:41;;;;;;;46.70;15.65;;;;;;;6.14;76.78;103027.47;7395317;19;20048;-66
2022/01/25 09:54:08;;;;;;;49.90;16.23;;;;;;;6.19;76.05;103022.88;7392192;19;20010;-65
2022/01/25 09:56:35;;;;;;;43.80;15.25;;;;;;;6.21;76.24;103017.56;7389527;19;20042;-66
2022/01/25 09:59:03;;;;;;;44.10;15.27;;;;;;;6.20;75.79;103015.84;7391879;19;20019;-68
2022/01/25 10:01:31;;;;;;;45.35;15.07;;;;;;;6.21;75.88;103021.03;7394018;19;20019;-69
2022/01/25 10:04:00;;;;;;;44.42;14.85;;;;;;;6.21;75.66;103021.03;7392915;19;20011;-66
2022/01/25 10:06:32;;;;;;;39.20;13.95;;;;;;;6.22;76.74;103019.25;7391223;19;20011;-68
2022/01/25 10:08:59;;;;;;;51.92;18.90;;;;;;;6.21;76.17;103028.00;7393014;19;20018;-65
2022/01/25 10:11:26;;;;;;;45.40;16.65;;;;;;;6.21;75.58;103034.09;7393804;19;20015;-69
2022/01/25 10:13:57;;;;;;;47.95;17.55;;;;;;;6.22;75.30;103027.09;7394019;19;20025;-67
2022/01/25 10:16:34;;;;;;;51.72;17.40;;;;;;;6.19;75.40;103035.94;7389899;19;20034;-69
2022/01/25 10:19:06;;;;;;;41.80;15.40;;;;;;;6.20;75.77;103031.53;7392552;19;20010;-68
2022/01/25 10:21:34;;;;;;;42.58;16.08;;;;;;;6.20;75.63;103042.00;7393016;19;20468;-66
2022/01/25 10:24:14;;;;;;;43.42;15.75;;;;;;;6.18;75.00;103046.47;7394698;19;20010;-67
2022/01/25 10:26:56;;;;;;;43.42;13.68;;;;;;;6.15;75.01;103052.66;7391448;19;20100;-68
2022/01/25 10:29:29;;;;;;;82.43;18.20;;;;;;;6.10;75.13;103049.41;7392853;19;20027;-68
2022/01/25 10:32:05;;;;;;;53.47;17.92;;;;;;;6.08;75.43;103050.41;7393956;19;20440;-67
2022/01/25 10:34:38;;;;;;;48.65;17.48;;;;;;;6.06;75.78;103054.84;7390399;19;20010;-65
2022/01/25 10:37:11;;;;;;;53.90;16.83;;;;;;;6.05;76.60;103053.13;7390929;19;21494;-66
2022/01/25 10:39:42;;;;;;;50.70;16.13;;;;;;;6.08;76.70;103055.63;7390098;19;20010;-66
2022/01/25 10:42:11;;;;;;;44.38;15.63;;;;;;;6.07;76.14;103048.69;7393062;19;20010;-66
2022/01/25 10:44:50;;;;;;;48.67;16.35;;;;;;;6.05;75.90;103056.59;7390262;19;20377;-67
2022/01/25 10:47:38;;;;;;;49.38;15.98;;;;;;;6.04;76.20;103057.53;7389380;19;20313;-65
2022/01/25 10:50:15;;;;;;;49.88;17.67;;;;;;;6.07;76.44;103067.00;7389562;19;20022;-65
2022/01/25 10:52:44;;;;;;;54.50;17.88;;;;;;;6.06;76.22;103060.06;7389539;19;20038;-67
2022/01/25 10:55:12;;;;;;;49.33;17.95;;;;;;;6.12;77.43;103060.66;7387330;19;20034;-66
2022/01/25 10:57:39;;;;;;;55.00;19.00;;;;;;;6.16;78.09;103062.19;7391714;19;20014;-68
2022/01/25 11:00:32;;;;;;;53.30;19.77;;;;;;;6.19;77.83;103062.09;7392711;19;20022;-65
2022/01/25 11:03:01;;;;;;;51.85;17.70;;;;;;;6.14;76.58;103065.81;7390491;19;20030;-67
2022/01/25 11:05:34;;;;;;;50.47;17.75;;;;;;;6.14;77.42;103066.66;7391564;19;20022;-67
2022/01/25 11:08:13;;;;;;;57.70;18.10;;;;;;;6.18;76.97;103069.97;7391938;19;20058;-67
2022/01/25 11:10:49;;;;;;;57.20;18.65;;;;;;;6.18;77.94;103065.59;7394387;19;20019;-65
2022/01/25 11:13:35;;;;;;;49.28;17.20;;;;;;;6.16;77.66;103064.81;7391531;19;20129;-66
2022/01/25 11:16:08;;;;;;;52.35;18.38;;;;;;;6.16;77.27;103071.81;7391721;19;20007;-67
2022/01/25 11:18:36;;;;;;;46.45;17.70;;;;;;;6.19;78.03;103064.69;7391353;19;20014;-68
2022/01/25 11:21:06;;;;;;;50.65;19.13;;;;;;;6.18;77.60;103060.38;7392088;19;20014;-67
2022/01/25 11:23:36;;;;;;;49.35;17.23;;;;;;;6.19;77.35;103069.06;7388861;19;20011;-66
2022/01/25 11:26:07;;;;;;;54.20;17.85;;;;;;;6.22;76.56;103061.06;7388759;19;20014;-67
2022/01/25 11:28:37;;;;;;;46.13;16.27;;;;;;;6.24;76.42;103059.25;7393135;19;20014;-65
2022/01/25 11:31:09;;;;;;;52.17;16.88;;;;;;;6.27;76.04;103059.97;7389572;19;20094;-66
2022/01/25 11:33:41;;;;;;;51.40;18.23;;;;;;;6.28;75.99;103060.81;7387250;19;20218;-64
2022/01/25 11:36:09;;;;;;;48.10;17.42;;;;;;;6.32;75.77;103062.34;7387993;19;20348;-65
2022/01/25 11:38:46;;;;;;;49.22;17.05;;;;;;;6.36;76.41;103054.31;7393455;19;20022;-65
2022/01/25 11:41:16;;;;;;;46.13;17.05;;;;;;;6.39;76.19;103046.34;7389483;19;20021;-65
2022/01/25 11:44:04;;;;;;;43.38;15.45;;;;;;;6.41;76.00;103049.72;7391658;19;20019;-64
2022/01/25 11:46:37;;;;;;;42.13;14.20;;;;;;;6.39;75.26;103061.16;7388276;19;20021;-65
2022/01/25 11:49:10;;;;;;;41.65;14.70;;;;;;;6.39;75.87;103054.19;7391907;19;20014;-67
2022/01/25 11:51:37;;;;;;;;;;;;;;;6.39;76.17;103048.94;7391739;19;20453;-67
2022/01/25 11:54:04;;;;;;;43.22;14.23;;;;;;;6.37;76.67;103049.94;7387223;19;20003;-68
2022/01/25 11:56:32;;;;;;;53.90;16.38;;;;;;;6.39;78.23;103051.56;7385630;19;20042;-67
2022/01/25 11:59:00;;;;;;;52.10;15.95;;;;;;;6.35;78.53;103049.13;7389458;19;20019;-67
2022/01/25 12:01:29;;;;;;;51.53;17.10;;;;;;;6.31;77.79;103045.81;7389160;19;20011;-67
2022/01/25 12:04:00;;;;;;;45.17;15.50;;;;;;;6.29;77.04;103042.44;7386849;19;20038;-67
2022/01/25 12:06:33;;;;;;;57.47;16.52;;;;;;;6.31;76.69;103039.75;7390478;19;20049;-65
2022/01/25 12:11:46;;;;;;;40.60;14.30;;;;;;;6.33;76.21;103035.31;7386304;19;20018;-69
2022/01/25 12:14:17;;;;;;;48.85;14.85;;;;;;;6.32;77.97;103031.84;7387517;19;20015;-65
2022/01/25 12:16:48;;;;;;;48.33;15.32;;;;;;;6.36;79.05;103022.06;7392643;19;20018;-66
2022/01/25 12:19:19;;;;;;;42.20;14.27;;;;;;;6.32;77.40;103026.63;7388671;19;20074;-65
2022/01/25 12:24:28;;;;;;;42.97;14.00;;;;;;;6.32;76.40;103024.00;7392594;19;20361;-66
2022/01/25 12:27:07;;;;;;;43.97;13.32;;;;;;;6.33;76.51;103017.84;7388573;19;20010;-66
2022/01/25 12:29:38;;;;;;;45.30;14.43;;;;;;;6.30;76.00;103010.13;7390000;19;20014;-65
2022/01/25 12:32:15;;;;;;;38.85;15.25;;;;;;;6.32;76.65;103010.94;7390293;19;20018;-66
2022/01/25 12:35:02;;;;;;;39.55;14.00;;;;;;;6.34;76.37;103027.41;7390763;19;20593;-65
2022/01/25 12:37:46;;;;;;;45.03;15.38;;;;;;;6.33;76.10;103024.84;7389266;19;20021;-67
2022/01/25 12:40:29;;;;;;;41.25;14.70;;;;;;;6.34;76.29;103016.94;7387019;19;20006;-66
2022/01/25 12:43:03;;;;;;;46.90;14.02;;;;;;;6.37;76.51;103011.56;7387819;19;20014;-66
2022/01/25 12:45:44;;;;;;;36.92;13.32;;;;;;;6.38;76.83;103018.50;7391185;19;20011;-67
2022/01/25 12:48:14;;;;;;;34.20;11.90;;;;;;;6.37;76.22;103029.00;7385999;19;20551;-65
2022/01/25 12:50:45;;;;;;;42.03;12.98;;;;;;;6.35;76.53;103017.75;7387188;19;20018;-66
2022/01/25 12:53:16;;;;;;;43.75;14.27;;;;;;;6.37;75.96;103005.47;7390051;19;20118;-65
2022/01/25 12:55:46;;;;;;;31.90;12.20;;;;;;;6.36;76.19;103004.63;7390638;19;20631;-67
2022/01/25 12:58:13;;;;;;;41.65;13.98;;;;;;;6.36;76.17;103009.00;7385354;19;20035;-66
2022/01/25 13:00:44;;;;;;;39.63;13.07;;;;;;;6.38;76.36;103008.03;7387243;19;20015;-66
2022/01/25 13:03:13;;;;;;;43.17;13.13;;;;;;;6.37;75.98;102998.50;7389192;19;20014;-65
2022/01/25 13:05:46;;;;;;;42.67;14.43;;;;;;;6.37;75.72;103000.25;7390183;19;20014;-65
2022/01/25 13:08:16;;;;;;;44.35;13.57;;;;;;;6.37;77.57;102997.63;7385438;19;20232;-65
2022/01/25 13:10:42;;;;;;;33.05;12.15;;;;;;;6.34;76.67;103000.41;7388941;19;20034;-66
2022/01/25 13:13:23;;;;;;;41.60;14.55;;;;;;;6.30;76.78;103001.44;7385547;19;20373;-65
2022/01/25 13:15:56;;;;;;;36.05;13.38;;;;;;;6.31;76.96;102990.94;7385582;19;20016;-68
2022/01/25 13:18:29;;;;;;;38.90;13.40;;;;;;;6.35;76.85;102989.00;7383197;19;20025;-64
2022/01/25 13:21:02;;;;;;;42.55;14.05;;;;;;;6.37;77.70;102989.78;7388760;19;20238;-64
2022/01/25 13:23:29;;;;;;;37.42;13.52;;;;;;;6.39;77.33;102990.59;7384279;19;20034;-66
2022/01/25 13:26:13;;;;;;;46.42;14.45;;;;;;;6.36;76.10;102980.25;7388005;19;20038;-69
2022/01/25 13:31:20;;;;;;;43.20;13.75;;;;;;;6.38;76.41;102984.50;7387093;19;20006;-65
2022/01/25 13:33:47;;;;;;;37.72;12.55;;;;;;;6.41;75.85;102984.34;7384764;19;20070;-64